Worthing, South Dakota
Current Conditions -  °F | °C
As of 1:56 PM on Saturday 25 Oct 2014 (Local Time) from KFSD Reporting Station
Clear Clear  
Wind Chill: 66°   Ceiling: Unl
Heat Index: 66°   Visibility: 10mi
Dew Point: 35°   Wind: 6mph
Humidity: 32%   Direction: 50°NE
Pressure: 30.12"   Gusts: NA
Location:  43.33°N, 96.76°W
Report Text: KFSD 251856Z 05005KT 10SM CLR 19/02 A3012 RMK AO2 SLP201 T01890017
Loading
Personal Weather Stations






























Interactive Weather Map
Tropical Storm Tracking
New forecast layout! Learn more

10-Day Weather Forecast

Advertisements
Track Severe Weather on mobile